Katsina Airport

Airport
ICAO code: 
DNKT
IATA Code: 
DKA
Summary
ICAO Region: 
AFI
Territory: 
Location: 
Katsina, Katsina State
Serving: 
Katsina
Elevation: 
1685 ft
Coordinates: 
Aerial View: 
13° 0' 24.984" N, 7° 39' 34.992" E
Metar
Observation
DNKT 081000Z 06016KT 1000 HZ NSC 25/05 Q1019
Station
Katsina Airport
Date/Time
2021-12-08 10:00:00
Wind direction
60°
Wind speed
16 kts
Lowest cloud amount
nil significant cloud
Temperature
25°C
Dew point
5°C
Humidity
27%
QNH
1019 hPa
Weather condition
n/a

Katsina Airport, also known as Umaru Musa Yar'adua airport, is an airport serving Katsina, the capital of Katsina State in Nigeria.

Climatology

Warm Steppe climate (Köppen climate classification BSh)

Airport map: 
Aerial View: 

SKYbrary Partners:

Safety knowledge contributed by: